createdAt,value
2023-03-19T00:02:18.499Z,44.80
2023-03-19T00:04:46.201Z,44.50
2023-03-19T00:07:13.779Z,43.03
2023-03-19T00:09:43.723Z,44.53
2023-03-19T00:12:11.329Z,43.63
2023-03-19T00:17:28.151Z,41.67
2023-03-19T00:22:39.797Z,42.38
2023-03-19T00:25:19.891Z,41.67
2023-03-19T00:27:49.208Z,39.47
2023-03-19T00:30:16.856Z,39.55
2023-03-19T00:32:45.665Z,39.33
2023-03-19T00:35:15.585Z,39.83
2023-03-19T00:37:43.415Z,42.95
2023-03-19T00:40:11.128Z,45.20
2023-03-19T00:42:38.868Z,45.63
2023-03-19T00:45:06.518Z,43.63
2023-03-19T00:47:45.752Z,42.55
2023-03-19T00:50:21.436Z,43.72
2023-03-19T00:52:49.813Z,42.53
2023-03-19T00:55:17.467Z,42.15
2023-03-19T00:57:45.138Z,42.00
2023-03-19T01:00:12.848Z,41.50
2023-03-19T01:02:40.532Z,40.78
2023-03-19T01:05:08.293Z,41.10
2023-03-19T01:07:38.417Z,40.38
2023-03-19T01:10:06.132Z,41.00
2023-03-19T01:12:34.180Z,41.58
2023-03-19T01:23:20.190Z,40.25
2023-03-19T01:34:01.800Z,41.58
2023-03-19T01:42:03.124Z,44.10
2023-03-19T01:47:32.904Z,42.17
2023-03-19T01:50:03.239Z,41.95
2023-03-19T01:55:23.347Z,41.80
2023-03-19T01:57:55.032Z,44.15
2023-03-19T02:00:27.653Z,41.50
2023-03-19T02:05:58.275Z,43.20
2023-03-19T02:13:57.810Z,43.75
2023-03-19T02:16:30.709Z,43.75
2023-03-19T02:18:58.932Z,43.33
2023-03-19T02:21:33.158Z,42.35
2023-03-19T02:26:41.975Z,39.38
2023-03-19T02:29:32.151Z,41.22
2023-03-19T02:32:05.610Z,42.40
2023-03-19T02:37:37.241Z,42.63
2023-03-19T02:40:34.645Z,41.60
2023-03-19T02:45:52.223Z,42.33
2023-03-19T02:48:38.649Z,40.30
2023-03-19T02:54:21.532Z,41.67
2023-03-19T02:59:43.136Z,41.15
2023-03-19T03:02:29.445Z,41.85
2023-03-19T03:16:24.801Z,38.92
2023-03-19T03:18:57.190Z,38.63
2023-03-19T03:21:51.118Z,37.67
2023-03-19T03:24:25.203Z,36.92
2023-03-19T03:26:53.074Z,37.08
2023-03-19T03:29:24.092Z,37.92
2023-03-19T03:32:14.351Z,37.38
2023-03-19T03:34:42.065Z,38.40
2023-03-19T03:37:10.535Z,37.42
2023-03-19T03:39:40.956Z,37.15
2023-03-19T03:42:08.517Z,36.67
2023-03-19T03:44:36.305Z,36.92
2023-03-19T03:47:06.719Z,36.97
2023-03-19T03:49:34.323Z,36.42
2023-03-19T03:52:01.879Z,38.05
2023-03-19T03:54:32.301Z,37.33
2023-03-19T03:57:02.754Z,38.38
2023-03-19T03:59:30.823Z,37.67
2023-03-19T04:02:00.605Z,36.75
2023-03-19T04:04:28.648Z,36.40
2023-03-19T04:06:58.747Z,35.35
2023-03-19T04:09:28.476Z,34.92
2023-03-19T04:11:56.237Z,37.90
2023-03-19T04:14:23.873Z,36.45
2023-03-19T04:16:51.578Z,36.70
2023-03-19T04:19:19.291Z,37.20
2023-03-19T04:21:46.796Z,38.15
2023-03-19T04:24:16.534Z,37.35
2023-03-19T04:26:44.114Z,36.75
2023-03-19T04:29:11.820Z,35.17
2023-03-19T04:31:41.687Z,36.25
2023-03-19T04:34:09.296Z,36.42
2023-03-19T04:36:36.737Z,33.90
2023-03-19T04:39:06.586Z,34.70
2023-03-19T04:41:34.329Z,33.80
2023-03-19T04:44:01.947Z,33.65
2023-03-19T04:46:31.811Z,32.63
2023-03-19T04:48:59.637Z,34.38
2023-03-19T04:51:27.156Z,33.22
2023-03-19T04:53:57.052Z,33.75
2023-03-19T04:56:24.653Z,32.90
2023-03-19T04:58:52.481Z,32.90
2023-03-19T05:01:22.266Z,33.22
2023-03-19T05:03:50.527Z,32.97
2023-03-19T05:06:18.035Z,32.78
2023-03-19T05:08:47.742Z,33.63
2023-03-19T05:11:15.428Z,33.55
2023-03-19T05:13:43.013Z,32.85
2023-03-19T05:16:10.786Z,32.08
2023-03-19T05:18:41.137Z,31.23
2023-03-19T05:21:09.011Z,31.95
2023-03-19T05:23:37.829Z,32.58
2023-03-19T05:26:05.483Z,32.97
2023-03-19T05:28:33.332Z,31.27
2023-03-19T05:31:03.422Z,30.60
2023-03-19T05:33:31.467Z,31.13
2023-03-19T05:35:59.170Z,30.98
2023-03-19T05:38:26.994Z,29.65
2023-03-19T05:40:54.576Z,29.15
2023-03-19T05:43:22.089Z,29.98
2023-03-19T05:45:52.276Z,30.02
2023-03-19T05:48:20.288Z,29.17
2023-03-19T05:50:47.794Z,29.92
2023-03-19T05:53:18.386Z,29.90
2023-03-19T05:55:46.129Z,28.67
2023-03-19T05:58:13.776Z,29.73
2023-03-19T06:00:44.134Z,29.45
2023-03-19T06:03:11.961Z,27.77
2023-03-19T06:05:39.633Z,29.33
2023-03-19T06:08:09.369Z,27.73
2023-03-19T06:10:37.045Z,28.02
2023-03-19T06:13:04.562Z,30.38
2023-03-19T06:15:32.628Z,28.33
2023-03-19T06:18:00.465Z,28.77
2023-03-19T06:20:28.016Z,28.60
2023-03-19T06:22:57.704Z,29.08
2023-03-19T06:25:25.481Z,28.20
2023-03-19T06:27:53.441Z,28.52
2023-03-19T06:30:23.548Z,26.67
2023-03-19T06:32:51.427Z,27.40
2023-03-19T06:35:19.047Z,26.98
2023-03-19T06:37:47.886Z,26.58
2023-03-19T06:40:16.938Z,26.23
2023-03-19T06:42:44.556Z,26.40
2023-03-19T06:45:15.589Z,27.10
2023-03-19T06:47:43.421Z,26.02
2023-03-19T06:50:10.968Z,25.90
2023-03-19T06:52:41.003Z,26.48
2023-03-19T06:55:08.610Z,25.65
2023-03-19T06:57:36.301Z,27.20
2023-03-19T07:00:05.994Z,25.83
2023-03-19T07:02:33.679Z,26.02
2023-03-19T07:05:01.270Z,25.77
2023-03-19T07:07:31.148Z,26.50
2023-03-19T07:09:58.870Z,26.85
2023-03-19T07:12:27.521Z,26.67
2023-03-19T07:14:57.471Z,26.70
2023-03-19T07:17:25.105Z,26.65
2023-03-19T07:19:52.712Z,27.77
2023-03-19T07:22:22.726Z,26.42
2023-03-19T07:24:50.272Z,25.33
2023-03-19T07:27:17.872Z,26.15
2023-03-19T07:29:48.100Z,25.73
2023-03-19T07:32:15.727Z,26.50
2023-03-19T07:34:43.474Z,26.25
2023-03-19T07:37:13.424Z,26.40
2023-03-19T07:39:41.774Z,27.70
2023-03-19T07:42:09.378Z,27.08
2023-03-19T07:44:41.824Z,26.50
2023-03-19T07:47:22.458Z,26.10
2023-03-19T07:49:56.821Z,26.58
2023-03-19T07:52:28.197Z,26.67
2023-03-19T07:54:55.727Z,26.20
2023-03-19T07:57:25.456Z,26.30
2023-03-19T07:59:53.269Z,27.65
2023-03-19T08:02:22.909Z,27.58
2023-03-19T08:04:53.436Z,27.95
2023-03-19T08:07:21.229Z,29.02
2023-03-19T08:09:49.349Z,29.38
2023-03-19T08:12:19.044Z,28.25
2023-03-19T08:14:48.044Z,29.73
2023-03-19T08:17:15.543Z,29.15
2023-03-19T08:19:45.339Z,27.63
2023-03-19T08:22:33.520Z,27.25
2023-03-19T08:25:11.781Z,26.42
2023-03-19T08:27:39.494Z,26.50
2023-03-19T08:30:07.037Z,26.95
2023-03-19T08:32:37.160Z,27.23
2023-03-19T08:35:04.800Z,27.15
2023-03-19T08:37:32.459Z,27.42
2023-03-19T08:40:02.216Z,28.05
2023-03-19T08:42:29.786Z,27.20
2023-03-19T08:44:57.311Z,27.23
2023-03-19T08:47:27.169Z,27.38
2023-03-19T08:49:54.735Z,26.67
2023-03-19T08:52:22.273Z,26.92
2023-03-19T08:54:49.971Z,27.00
2023-03-19T08:57:17.621Z,25.88
2023-03-19T08:59:45.194Z,26.52
2023-03-19T09:02:32.999Z,26.73
2023-03-19T09:05:02.821Z,25.88
2023-03-19T09:07:34.370Z,25.02
2023-03-19T09:10:01.972Z,25.85
2023-03-19T09:12:29.723Z,25.20
2023-03-19T09:14:57.510Z,25.77
2023-03-19T09:17:25.092Z,25.02
2023-03-19T09:19:52.755Z,25.33
2023-03-19T09:22:20.335Z,24.15
2023-03-19T09:24:50.542Z,25.73
2023-03-19T09:27:18.742Z,24.00
2023-03-19T09:29:46.657Z,24.52
2023-03-19T09:32:16.576Z,25.17
2023-03-19T09:34:44.164Z,23.92
2023-03-19T09:37:12.038Z,24.75
2023-03-19T09:39:41.934Z,24.73
2023-03-19T09:42:09.732Z,24.88
2023-03-19T09:44:40.421Z,23.85
2023-03-19T09:47:08.488Z,24.70
2023-03-19T09:49:36.122Z,25.08
2023-03-19T09:52:03.728Z,26.33
2023-03-19T09:54:33.623Z,26.30
2023-03-19T09:57:07.903Z,24.45
2023-03-19T09:59:35.419Z,23.80
2023-03-19T10:02:02.979Z,24.63
2023-03-19T10:04:33.357Z,24.27
2023-03-19T10:07:01.053Z,25.15
2023-03-19T10:09:28.610Z,24.10
2023-03-19T10:11:56.525Z,25.40
2023-03-19T10:14:24.268Z,25.25
2023-03-19T10:16:51.807Z,24.98
2023-03-19T10:19:22.260Z,24.60
2023-03-19T10:21:50.345Z,24.83
2023-03-19T10:24:17.882Z,25.85
2023-03-19T10:26:47.764Z,25.02
2023-03-19T10:29:15.446Z,26.00
2023-03-19T10:31:43.086Z,25.48
2023-03-19T10:34:15.787Z,27.75
2023-03-19T10:36:43.442Z,28.60
2023-03-19T10:39:11.011Z,28.60
2023-03-19T10:41:38.748Z,28.33
2023-03-19T10:44:06.426Z,30.13
2023-03-19T10:46:34.599Z,30.25
2023-03-19T10:49:04.357Z,32.70
2023-03-19T10:51:32.068Z,31.73
2023-03-19T10:54:00.494Z,31.05
2023-03-19T10:56:29.687Z,33.45
2023-03-19T10:58:57.448Z,34.90
2023-03-19T11:01:25.230Z,35.78
2023-03-19T11:03:53.350Z,34.42
2023-03-19T11:06:21.494Z,33.28
2023-03-19T11:08:49.347Z,33.97
2023-03-19T11:11:19.440Z,34.22
2023-03-19T11:13:47.043Z,33.47
2023-03-19T11:16:14.718Z,34.72
2023-03-19T11:18:42.822Z,34.60
2023-03-19T11:21:10.523Z,34.08
2023-03-19T11:23:38.077Z,33.58
2023-03-19T11:26:05.972Z,34.58
2023-03-19T11:28:34.571Z,33.42
2023-03-19T11:31:02.085Z,65.05
2023-03-19T11:33:33.876Z,76.28
2023-03-19T11:36:01.656Z,69.32
2023-03-19T11:38:29.283Z,73.30
2023-03-19T11:40:59.275Z,70.78
2023-03-19T11:43:26.983Z,49.63
2023-03-19T11:45:54.582Z,47.97
2023-03-19T11:48:22.426Z,50.05
2023-03-19T11:50:50.134Z,45.28
2023-03-19T11:53:18.900Z,44.60
2023-03-19T11:55:46.778Z,41.22
2023-03-19T11:58:14.292Z,37.47
2023-03-19T12:00:47.158Z,37.75
2023-03-19T12:03:15.415Z,39.20
2023-03-19T12:05:43.024Z,42.20
2023-03-19T12:08:10.572Z,41.50
2023-03-19T12:10:38.492Z,50.70
2023-03-19T12:13:06.311Z,51.58
2023-03-19T12:15:34.116Z,42.67
2023-03-19T12:18:02.831Z,45.58
2023-03-19T12:20:30.467Z,45.00
2023-03-19T12:22:58.083Z,43.15
2023-03-19T12:25:25.999Z,43.25
2023-03-19T12:27:55.592Z,42.08
2023-03-19T12:30:24.310Z,41.13
2023-03-19T12:32:52.523Z,40.92
2023-03-19T12:35:20.083Z,40.47
2023-03-19T12:37:47.712Z,40.45
2023-03-19T12:40:16.925Z,40.58
2023-03-19T12:42:44.636Z,38.13
2023-03-19T12:45:12.244Z,35.47
2023-03-19T12:47:40.772Z,34.60
2023-03-19T12:50:08.639Z,32.22
2023-03-19T12:52:36.387Z,32.70
2023-03-19T12:55:04.283Z,33.08
2023-03-19T12:57:32.047Z,31.52
2023-03-19T12:59:59.837Z,31.83
2023-03-19T13:02:27.948Z,32.47
2023-03-19T13:04:55.570Z,31.30
2023-03-19T13:07:23.169Z,33.10
2023-03-19T13:09:54.058Z,32.28
2023-03-19T13:12:21.611Z,32.33
2023-03-19T13:14:49.193Z,31.80
2023-03-19T13:17:21.295Z,31.77
2023-03-19T13:19:49.241Z,34.13
2023-03-19T13:22:16.830Z,32.88
2023-03-19T13:24:50.270Z,33.38
2023-03-19T13:27:18.017Z,34.40
2023-03-19T13:29:45.736Z,34.97
2023-03-19T13:32:15.736Z,35.97
2023-03-19T13:34:43.475Z,33.78
2023-03-19T13:37:11.100Z,34.92
2023-03-19T13:39:40.647Z,35.35
2023-03-19T13:42:08.379Z,35.80
2023-03-19T13:44:35.936Z,34.60
2023-03-19T13:47:03.889Z,32.85
2023-03-19T13:49:31.556Z,30.98
2023-03-19T13:51:59.114Z,31.83
2023-03-19T13:54:29.580Z,32.20
2023-03-19T13:56:57.245Z,32.20
2023-03-19T13:59:24.866Z,31.60
2023-03-19T14:01:54.837Z,32.88
2023-03-19T14:04:24.241Z,32.67
2023-03-19T14:06:51.883Z,33.35
2023-03-19T14:09:20.200Z,32.00
2023-03-19T14:11:47.896Z,31.33
2023-03-19T14:14:15.492Z,32.38
2023-03-19T14:16:45.510Z,31.30
2023-03-19T14:19:13.137Z,30.67
2023-03-19T14:21:40.686Z,30.42
2023-03-19T14:24:50.745Z,32.25
2023-03-19T14:27:00.592Z,31.63
2023-03-19T14:29:30.499Z,31.23
2023-03-19T14:31:58.143Z,31.42
2023-03-19T14:34:25.915Z,31.02
2023-03-19T14:36:57.046Z,33.28
2023-03-19T14:39:24.696Z,31.77
2023-03-19T14:41:52.686Z,33.05
2023-03-19T14:44:22.792Z,32.00
2023-03-19T14:46:50.432Z,33.03
2023-03-19T14:49:18.049Z,31.52
2023-03-19T14:51:49.417Z,31.20
2023-03-19T14:54:17.025Z,31.25
2023-03-19T14:56:44.568Z,31.98
2023-03-19T14:59:15.605Z,31.80
2023-03-19T15:01:43.204Z,31.50
2023-03-19T15:04:10.812Z,32.05
2023-03-19T15:06:40.746Z,32.55
2023-03-19T15:09:08.315Z,31.33
2023-03-19T15:11:35.987Z,33.05
2023-03-19T15:14:05.917Z,32.60
2023-03-19T15:16:33.536Z,31.35
2023-03-19T15:19:01.161Z,34.35
2023-03-19T15:21:30.984Z,34.95
2023-03-19T15:23:58.539Z,35.75
2023-03-19T15:26:26.147Z,34.08
2023-03-19T15:28:56.217Z,34.20
2023-03-19T15:31:33.684Z,34.58
2023-03-19T15:34:09.604Z,33.70
2023-03-19T15:36:37.195Z,33.25
2023-03-19T15:39:04.844Z,31.73
2023-03-19T15:41:35.228Z,31.70
2023-03-19T15:44:02.724Z,32.70
2023-03-19T15:46:30.625Z,34.05
2023-03-19T15:49:04.634Z,32.58
2023-03-19T15:51:32.170Z,32.42
2023-03-19T15:53:59.932Z,32.40
2023-03-19T15:56:31.031Z,30.95
2023-03-19T15:58:58.643Z,31.73
2023-03-19T16:01:26.270Z,34.50
2023-03-19T16:03:56.396Z,31.13
2023-03-19T16:06:26.975Z,32.65
2023-03-19T16:08:54.796Z,32.67
2023-03-19T16:11:24.678Z,32.83
2023-03-19T16:13:52.238Z,32.72
2023-03-19T16:16:20.129Z,32.38
2023-03-19T16:18:48.861Z,31.38
2023-03-19T16:21:16.427Z,32.00
2023-03-19T16:23:44.055Z,31.92
2023-03-19T16:26:13.873Z,30.90
2023-03-19T16:28:42.273Z,31.85
2023-03-19T16:31:11.046Z,30.48
2023-03-19T16:33:40.928Z,30.95
2023-03-19T16:36:08.602Z,30.27
2023-03-19T16:38:36.202Z,30.73
2023-03-19T16:41:06.125Z,31.85
2023-03-19T16:43:33.574Z,31.38
2023-03-19T16:46:03.446Z,31.58
2023-03-19T16:48:31.166Z,31.13
2023-03-19T16:50:58.697Z,30.40
2023-03-19T16:53:28.643Z,31.90
2023-03-19T16:55:56.218Z,31.58
2023-03-19T16:58:23.756Z,30.77
2023-03-19T17:00:51.402Z,32.85
2023-03-19T17:03:19.253Z,31.05
2023-03-19T17:05:46.892Z,32.22
2023-03-19T17:08:16.830Z,31.08
2023-03-19T17:10:44.404Z,33.03
2023-03-19T17:13:11.960Z,33.78
2023-03-19T17:15:42.103Z,32.75
2023-03-19T17:18:09.709Z,33.30
2023-03-19T17:20:37.247Z,32.72
2023-03-19T17:23:07.467Z,31.63
2023-03-19T17:25:35.272Z,32.50
2023-03-19T17:28:02.945Z,31.48
2023-03-19T17:30:31.849Z,30.20
2023-03-19T17:32:59.482Z,31.73
2023-03-19T17:35:27.080Z,31.33
2023-03-19T17:37:56.821Z,31.42
2023-03-19T17:40:24.424Z,32.08
2023-03-19T17:42:52.014Z,31.50
2023-03-19T17:45:22.319Z,31.00
2023-03-19T17:47:49.982Z,31.15
2023-03-19T17:50:17.547Z,31.52
2023-03-19T17:52:47.405Z,31.13
2023-03-19T17:55:14.937Z,31.67
2023-03-19T17:57:42.491Z,32.95
2023-03-19T18:00:12.396Z,33.05
2023-03-19T18:02:40.118Z,32.97
2023-03-19T18:05:16.684Z,33.78
2023-03-19T18:07:45.550Z,33.58
2023-03-19T18:10:15.973Z,34.08
2023-03-19T18:12:45.187Z,32.78
2023-03-19T18:15:14.791Z,32.47
2023-03-19T18:17:42.981Z,34.15
2023-03-19T18:20:14.582Z,33.72
2023-03-19T18:22:43.135Z,32.97
2023-03-19T18:25:10.736Z,35.00
2023-03-19T18:27:41.366Z,34.33
2023-03-19T18:30:09.811Z,34.13
2023-03-19T18:32:37.414Z,35.58
2023-03-19T18:35:07.234Z,35.03
2023-03-19T18:37:35.010Z,35.58
2023-03-19T18:40:02.554Z,34.97
2023-03-19T18:42:32.356Z,34.33
2023-03-19T18:45:00.215Z,35.70
2023-03-19T18:47:27.869Z,36.35
2023-03-19T18:49:56.810Z,35.58
2023-03-19T18:52:24.664Z,35.00
2023-03-19T18:54:52.178Z,34.45
2023-03-19T18:57:22.000Z,34.47
2023-03-19T18:59:49.629Z,34.30
2023-03-19T19:02:17.316Z,35.03
2023-03-19T19:04:47.138Z,34.67
2023-03-19T19:07:14.865Z,33.88
2023-03-19T19:09:42.393Z,34.40
2023-03-19T19:12:13.482Z,34.65
2023-03-19T19:14:41.293Z,35.17
2023-03-19T19:17:08.894Z,34.88
2023-03-19T19:19:38.725Z,35.17
2023-03-19T19:22:06.805Z,34.35
2023-03-19T19:24:34.515Z,33.88
2023-03-19T19:27:04.481Z,33.20
2023-03-19T19:29:32.647Z,33.20
2023-03-19T19:32:00.154Z,33.10
2023-03-19T19:34:27.810Z,33.15
2023-03-19T19:36:55.490Z,33.90
2023-03-19T19:39:23.174Z,34.10
2023-03-19T19:41:52.766Z,33.08
2023-03-19T19:44:20.348Z,32.60
2023-03-19T19:46:47.933Z,33.40
2023-03-19T19:49:17.804Z,34.03
2023-03-19T19:51:45.505Z,32.72
2023-03-19T19:54:13.080Z,33.28
2023-03-19T19:56:41.811Z,31.83
2023-03-19T19:59:09.411Z,31.98
2023-03-19T20:01:36.978Z,32.22
2023-03-19T20:04:05.888Z,30.33
2023-03-19T20:06:33.635Z,30.35
2023-03-19T20:09:01.400Z,27.77
2023-03-19T20:11:31.245Z,28.70
2023-03-19T20:13:58.880Z,28.48
2023-03-19T20:16:26.555Z,27.02
2023-03-19T20:18:56.685Z,25.88
2023-03-19T20:21:25.064Z,26.42
2023-03-19T20:23:52.624Z,26.58
2023-03-19T20:26:23.228Z,24.88
2023-03-19T20:28:50.986Z,23.85
2023-03-19T20:31:18.617Z,23.60
2023-03-19T20:33:46.544Z,22.90
2023-03-19T20:36:14.719Z,22.83
2023-03-19T20:38:42.251Z,21.58
2023-03-19T20:41:11.982Z,20.83
2023-03-19T20:43:40.064Z,21.33
2023-03-19T20:46:07.591Z,21.70
2023-03-19T20:48:37.385Z,22.92
2023-03-19T20:51:05.072Z,20.58
2023-03-19T20:53:32.912Z,21.52
2023-03-19T20:56:02.828Z,21.02
2023-03-19T20:58:30.662Z,21.50
2023-03-19T21:00:58.287Z,20.98
2023-03-19T21:03:26.126Z,19.55
2023-03-19T21:05:53.587Z,19.70
2023-03-19T21:08:42.354Z,19.08
2023-03-19T21:11:30.158Z,19.77
2023-03-19T21:14:20.343Z,20.00
2023-03-19T21:17:08.120Z,19.42
2023-03-19T21:19:58.198Z,19.27
2023-03-19T21:22:46.017Z,18.50
2023-03-19T21:25:36.383Z,18.23
2023-03-19T21:28:24.526Z,18.55
2023-03-19T21:31:14.644Z,20.15
2023-03-19T21:34:02.486Z,20.92
2023-03-19T21:36:52.512Z,20.98
2023-03-19T21:39:40.323Z,27.80
2023-03-19T21:42:28.165Z,32.53
2023-03-19T21:45:16.001Z,26.48
2023-03-19T21:48:03.829Z,24.10
2023-03-19T21:50:51.684Z,23.25
2023-03-19T21:53:41.649Z,21.40
2023-03-19T21:56:29.478Z,21.02
2023-03-19T21:59:19.454Z,20.80
2023-03-19T22:02:07.294Z,21.52
2023-03-19T22:04:57.244Z,21.85
2023-03-19T22:07:45.058Z,22.60
2023-03-19T22:10:34.985Z,22.23
2023-03-19T22:13:22.799Z,22.92
2023-03-19T22:16:12.772Z,22.20
2023-03-19T22:19:00.593Z,21.67
2023-03-19T22:21:50.586Z,23.67
2023-03-19T22:24:38.373Z,26.02
2023-03-19T22:27:28.337Z,25.33
2023-03-19T22:30:16.143Z,23.48
2023-03-19T22:33:06.298Z,24.67
2023-03-19T22:35:42.360Z,28.40
2023-03-19T22:38:30.390Z,29.00
2023-03-19T22:41:00.085Z,29.20
2023-03-19T22:46:18.732Z,40.63
2023-03-19T22:48:47.349Z,36.17
2023-03-19T22:51:28.765Z,31.27
2023-03-19T22:54:09.118Z,27.42
2023-03-19T22:56:37.049Z,27.17
2023-03-19T22:59:05.347Z,24.27
2023-03-19T23:01:35.102Z,25.00
2023-03-19T23:04:03.654Z,24.02
2023-03-19T23:06:31.915Z,23.27
2023-03-19T23:09:01.804Z,22.00
2023-03-19T23:11:30.186Z,23.40
2023-03-19T23:13:58.906Z,22.65
2023-03-19T23:16:26.589Z,22.65
2023-03-19T23:21:21.736Z,23.17
2023-03-19T23:23:51.630Z,23.27
2023-03-19T23:26:19.182Z,22.85
2023-03-19T23:28:46.689Z,23.40
2023-03-19T23:31:14.739Z,22.42
2023-03-19T23:33:42.417Z,21.77
2023-03-19T23:36:10.030Z,23.15
2023-03-19T23:38:39.996Z,21.90
2023-03-19T23:41:07.714Z,21.50
2023-03-19T23:43:35.253Z,21.90
2023-03-19T23:46:05.417Z,21.55
2023-03-19T23:48:33.174Z,23.90
2023-03-19T23:51:00.790Z,23.33
2023-03-19T23:53:30.636Z,24.27
2023-03-19T23:55:58.269Z,26.58
2023-03-19T23:58:25.856Z,25.05
